Time;durP1;ratioP1;P1;durP2;ratioP2;P2;SDS_P1;SDS_P2;PMS_P1;PMS_P2;Temp;Humidity;BMP_temperature;BMP_pressure;BME280_temperature;BME280_humidity;BME280_pressure;Samples;Min_cycle;Max_cycle;Signal;HPM_P1;HPM_P2
2022/12/06 00:02:40;;;;;;;8.32;4.97;;;;;;;18.96;51.82;96754.09;13249761;22;20022;-48
2022/12/06 00:08:00;;;;;;;7.65;4.30;;;;;;;18.95;51.70;96749.81;13249120;22;20040;-47
2022/12/06 00:13:19;;;;;;;6.25;4.45;;;;;;;18.94;51.71;96742.84;13248824;22;20505;-47
2022/12/06 00:18:40;;;;;;;6.25;4.53;;;;;;;18.93;51.67;96749.34;13249400;22;20025;-49
2022/12/06 00:24:09;;;;;;;6.75;4.22;;;;;;;18.92;51.72;96740.47;13270534;22;20017;-46
2022/12/06 00:29:28;;;;;;;7.22;4.43;;;;;;;18.91;51.65;96732.66;13249016;22;20021;-50
2022/12/06 00:34:48;;;;;;;6.35;4.22;;;;;;;18.90;51.63;96740.00;13270381;22;20021;-48
2022/12/06 00:40:07;;;;;;;6.28;3.85;;;;;;;18.91;51.57;96743.47;13249029;22;20025;-48
2022/12/06 00:45:27;;;;;;;5.75;4.25;;;;;;;18.89;51.56;96733.00;13249123;22;20014;-46
2022/12/06 00:50:46;;;;;;;5.40;4.10;;;;;;;18.88;51.45;96734.13;13248821;22;20017;-49
2022/12/06 00:56:05;;;;;;;4.97;3.83;;;;;;;18.88;51.50;96736.03;13247504;22;20376;-47
2022/12/06 01:01:28;;;;;;;9.40;3.75;;;;;;;18.86;51.46;96727.47;13248533;22;20025;-48
2022/12/06 01:06:47;;;;;;;5.90;4.05;;;;;;;18.87;51.26;96734.44;13247172;22;20025;-49
2022/12/06 01:12:07;;;;;;;5.50;3.78;;;;;;;18.85;51.34;96726.66;13248105;22;20022;-47
2022/12/06 01:17:26;;;;;;;4.95;3.33;;;;;;;18.84;51.33;96721.59;13247403;22;20014;-48
2022/12/06 01:22:45;;;;;;;4.00;3.60;;;;;;;18.83;51.35;96722.69;13248200;22;20021;-49
2022/12/06 01:28:05;;;;;;;5.03;3.72;;;;;;;18.81;51.38;96711.44;13248121;22;20021;-49
2022/12/06 01:33:25;;;;;;;4.15;3.53;;;;;;;18.80;51.27;96701.72;13247623;22;20070;-49
2022/12/06 01:38:49;;;;;;;5.90;4.00;;;;;;;18.79;51.40;96698.22;13247770;22;20018;-47
2022/12/06 01:44:58;;;;;;;4.60;3.65;;;;;;;18.77;51.19;96693.13;13247445;22;20014;-49
2022/12/06 01:50:20;;;;;;;5.35;3.40;;;;;;;18.77;51.30;96693.13;13237840;22;20018;-47
2022/12/06 01:55:39;;;;;;;7.38;3.63;;;;;;;18.76;51.32;96688.09;13246687;22;20453;-48
2022/12/06 02:01:00;;;;;;;4.50;3.40;;;;;;;18.74;51.25;96683.00;13247581;22;20017;-47
2022/12/06 02:06:20;;;;;;;4.35;3.17;;;;;;;18.72;51.28;96682.53;13246904;22;20014;-48
2022/12/06 02:11:40;;;;;;;3.90;3.30;;;;;;;18.72;51.16;96679.03;13247420;22;20013;-48
2022/12/06 02:17:12;;;;;;;5.25;3.50;;;;;;;18.71;51.12;96678.22;13246460;22;20345;-49
2022/12/06 02:23:00;;;;;;;3.72;2.92;;;;;;;18.70;51.18;96676.66;13245591;22;20018;-47
2022/12/06 02:29:20;;;;;;;4.70;3.10;;;;;;;18.69;51.19;96669.66;13199683;22;20025;-47
2022/12/06 02:34:48;;;;;;;3.95;3.05;;;;;;;18.67;51.08;96663.81;12917007;23;20012;-48
2022/12/06 02:40:16;;;;;;;3.90;2.97;;;;;;;18.65;51.21;96662.53;13246535;22;20018;-50
2022/12/06 02:45:40;;;;;;;4.10;3.15;;;;;;;18.65;51.26;96663.34;13246656;22;20063;-49
2022/12/06 02:51:03;;;;;;;4.57;3.00;;;;;;;18.64;51.04;96659.06;13222496;22;20017;-47
2022/12/06 02:56:24;;;;;;;3.40;3.10;;;;;;;18.63;51.03;96653.97;13221998;22;20010;-48
2022/12/06 03:01:48;;;;;;;4.00;3.00;;;;;;;18.62;51.05;96652.38;13222560;22;20014;-46
2022/12/06 03:07:13;;;;;;;4.15;3.13;;;;;;;18.61;51.06;96648.91;13245614;22;20018;-48
2022/12/06 03:12:39;;;;;;;4.28;2.90;;;;;;;18.59;51.16;96651.13;13268117;22;20441;-48
2022/12/06 03:18:08;;;;;;;3.67;2.90;;;;;;;18.58;50.97;96646.84;13221927;22;20071;-49
2022/12/06 03:23:31;;;;;;;3.33;2.67;;;;;;;18.57;50.90;96639.88;13246580;22;20014;-48
2022/12/06 03:28:55;;;;;;;3.58;2.60;;;;;;;18.56;51.06;96649.06;13225333;22;20021;-48
2022/12/06 03:34:18;;;;;;;4.07;2.38;;;;;;;18.54;50.96;96643.19;13226627;22;20376;-46
2022/12/06 03:39:45;;;;;;;4.65;3.05;;;;;;;18.55;51.04;96647.50;13250216;22;20129;-48
2022/12/06 03:45:05;;;;;;;3.17;2.58;;;;;;;18.53;50.97;96645.09;13271338;22;20456;-46
2022/12/06 03:50:54;;;;;;;3.53;2.72;;;;;;;18.52;50.90;96650.81;13226179;22;20078;-46
2022/12/06 03:56:13;;;;;;;2.80;2.50;;;;;;;18.51;51.02;96652.72;13271590;22;20017;-46
2022/12/06 04:01:33;;;;;;;2.88;2.30;;;;;;;18.50;50.89;96653.03;13271354;22;20434;-50
2022/12/06 04:06:53;;;;;;;3.35;2.60;;;;;;;18.48;50.88;96655.28;13250129;22;20018;-48
2022/12/06 04:23:30;;;;;;;3.60;2.60;;;;;;;18.44;50.90;96663.19;13249011;22;20578;-48
2022/12/06 04:40:07;;;;;;;2.55;2.10;;;;;;;18.41;50.82;96663.06;13248817;22;20318;-47
2022/12/06 04:45:27;;;;;;;2.63;2.42;;;;;;;18.41;50.74;96668.47;13249039;22;20341;-48
2022/12/06 04:50:50;;;;;;;3.05;2.50;;;;;;;18.39;50.81;96668.78;13270385;22;20010;-48
2022/12/06 04:56:09;;;;;;;2.83;2.17;;;;;;;18.37;50.94;96666.41;13248660;22;20018;-47
2022/12/06 05:01:28;;;;;;;2.17;1.90;;;;;;;18.37;50.88;96669.09;13248559;22;20014;-48
2022/12/06 05:06:48;;;;;;;2.33;2.13;;;;;;;18.35;50.81;96668.63;13248039;22;20013;-47
2022/12/06 05:12:08;;;;;;;2.22;2.03;;;;;;;18.35;50.83;96659.75;13269848;22;20017;-46
2022/12/06 05:17:27;;;;;;;2.47;2.20;;;;;;;18.35;51.01;96665.16;13248410;22;20013;-48
2022/12/06 05:22:46;;;;;;;3.08;2.10;;;;;;;18.34;51.23;96658.94;13248051;22;20014;-49
2022/12/06 05:28:06;;;;;;;4.07;2.40;;;;;;;18.34;51.21;96663.53;13247331;22;20021;-48
2022/12/06 05:33:26;;;;;;;2.58;1.95;;;;;;;18.36;51.20;96661.31;13246018;22;20018;-47
2022/12/06 05:38:46;;;;;;;2.15;1.80;;;;;;;18.35;51.56;96663.22;13247691;22;20029;-47
2022/12/06 05:44:05;;;;;;;5.63;2.05;;;;;;;18.37;51.44;96662.91;13246552;22;20014;-47
2022/12/06 05:49:25;;;;;;;2.78;1.70;;;;;;;18.39;51.67;96663.38;13247237;22;20083;-47
2022/12/06 05:54:44;;;;;;;2.60;2.00;;;;;;;18.40;51.62;96662.25;13246837;22;20021;-46
2022/12/06 06:00:04;;;;;;;2.33;2.13;;;;;;;18.41;51.97;96660.38;13268943;22;20014;-47
2022/12/06 06:05:26;;;;;;;3.25;1.95;;;;;;;18.43;51.80;96660.84;13245893;22;20021;-47
2022/12/06 06:10:45;;;;;;;3.05;1.83;;;;;;;18.45;52.02;96650.53;13242771;22;20981;-47
2022/12/06 06:16:04;;;;;;;15.25;4.63;;;;;;;18.46;51.89;96649.41;13246406;22;20380;-46
2022/12/06 06:21:24;;;;;;;11.27;3.30;;;;;;;18.48;52.00;96649.88;13246520;22;20433;-47
2022/12/06 06:26:43;;;;;;;13.35;3.88;;;;;;;18.50;52.01;96653.84;13245204;22;20010;-48
2022/12/06 06:32:03;;;;;;;10.02;3.72;;;;;;;18.51;52.09;96651.94;13264187;22;20021;-48
2022/12/06 06:37:23;;;;;;;11.77;3.50;;;;;;;18.52;52.11;96654.34;13241880;22;20014;-49
2022/12/06 06:42:43;;;;;;;11.07;3.60;;;;;;;18.54;52.16;96659.38;13242072;22;20018;-50
2022/12/06 06:48:02;;;;;;;8.02;3.17;;;;;;;18.55;52.16;96660.97;13244202;22;20025;-46
2022/12/06 06:53:23;;;;;;;10.13;3.40;;;;;;;18.56;52.01;96657.16;13267846;22;20018;-48
2022/12/06 06:58:43;;;;;;;8.90;3.28;;;;;;;18.58;52.14;96657.63;13246641;22;20021;-48
2022/12/06 07:04:02;;;;;;;10.80;3.35;;;;;;;18.59;51.94;96661.91;13248511;22;20014;-49
2022/12/06 07:09:22;;;;;;;9.15;3.33;;;;;;;18.60;52.05;96660.78;13250071;22;20022;-47
2022/12/06 07:14:41;;;;;;;10.40;3.38;;;;;;;18.63;51.95;96657.47;13272340;22;20021;-46
2022/12/06 07:20:01;;;;;;;9.27;3.22;;;;;;;18.65;51.96;96662.53;13250548;22;20017;-48
2022/12/06 07:25:20;;;;;;;6.90;3.22;;;;;;;18.66;52.06;96672.22;13250600;22;20010;-47
2022/12/06 07:30:39;;;;;;;8.45;2.90;;;;;;;18.68;51.81;96673.50;13250079;22;20018;-46
2022/12/06 07:35:59;;;;;;;6.70;3.00;;;;;;;18.71;51.65;96677.44;13270170;22;20018;-49
2022/12/06 07:47:05;;;;;;;7.53;3.08;;;;;;;18.75;51.60;96676.47;13249370;22;20013;-48
2022/12/06 07:52:24;;;;;;;5.03;2.67;;;;;;;18.78;51.56;96669.66;13249628;22;20082;-46
2022/12/06 07:57:43;;;;;;;9.75;2.95;;;;;;;18.81;51.54;96670.94;13249618;22;20063;-48
2022/12/06 08:03:03;;;;;;;5.57;2.70;;;;;;;18.84;51.35;96673.00;13249289;22;20037;-49
2022/12/06 08:08:22;;;;;;;5.32;2.90;;;;;;;18.87;51.19;96666.94;13248760;22;20051;-46
2022/12/06 08:13:41;;;;;;;4.50;2.70;;;;;;;18.89;51.32;96667.41;13248105;22;20013;-49
2022/12/06 08:19:01;;;;;;;5.45;2.67;;;;;;;18.91;51.14;96665.97;13249262;22;20017;-49
2022/12/06 08:24:21;;;;;;;5.95;2.60;;;;;;;18.94;51.08;96659.16;13249169;22;20010;-49
2022/12/06 08:29:43;;;;;;;7.55;2.67;;;;;;;18.98;51.07;96659.31;13247997;22;20017;-49
2022/12/06 08:35:03;;;;;;;6.85;2.88;;;;;;;19.00;51.30;96663.25;13248985;22;20017;-45
2022/12/06 08:40:22;;;;;;;5.82;2.83;;;;;;;19.02;51.01;96666.44;13248376;22;20025;-48
2022/12/06 08:45:42;;;;;;;6.15;2.53;;;;;;;19.05;50.98;96656.88;13248228;22;20018;-49
2022/12/06 08:51:02;;;;;;;7.80;3.08;;;;;;;19.07;50.96;96654.66;13247142;22;20476;-48
2022/12/06 08:56:22;;;;;;;6.68;2.97;;;;;;;19.09;50.95;96661.31;13224235;22;20018;-48
2022/12/06 09:01:41;;;;;;;7.20;3.25;;;;;;;19.11;50.87;96661.78;13269608;22;20014;-47
2022/12/06 09:07:01;;;;;;;9.57;3.10;;;;;;;19.15;50.80;96659.22;13247921;22;20029;-49
2022/12/06 09:12:20;;;;;;;10.10;3.78;;;;;;;19.17;51.01;96663.19;13248192;22;20334;-46
2022/12/06 09:17:40;;;;;;;9.05;3.28;;;;;;;19.21;50.67;96662.53;13246846;22;20445;-46
2022/12/06 09:22:59;;;;;;;9.38;3.78;;;;;;;19.22;50.64;96658.72;13247413;22;20022;-45
2022/12/06 09:28:18;;;;;;;9.10;3.35;;;;;;;19.26;50.64;96655.03;13269038;22;20010;-48
2022/12/06 09:33:38;;;;;;;10.25;3.45;;;;;;;19.28;50.51;96657.41;13246840;22;20021;-48
2022/12/06 09:39:03;;;;;;;8.70;3.60;;;;;;;19.32;50.31;96655.66;13247350;22;20018;-47
2022/12/06 09:44:46;;;;;;;7.97;3.25;;;;;;;19.33;50.42;96647.22;13246548;22;20014;-46
2022/12/06 09:50:11;;;;;;;10.27;3.83;;;;;;;19.36;50.40;96641.16;13268523;22;20013;-48
2022/12/06 09:55:43;;;;;;;9.88;3.88;;;;;;;19.40;50.29;96638.59;13222793;22;20014;-47
2022/12/06 10:01:17;;;;;;;10.48;3.50;;;;;;;19.42;50.32;96635.56;13247217;22;20021;-46
2022/12/06 10:07:16;;;;;;;8.52;3.33;;;;;;;19.45;49.93;96624.13;13246724;22;20107;-48
2022/12/06 10:12:53;;;;;;;8.20;3.00;;;;;;;19.49;50.23;96619.66;13247529;22;20033;-49
2022/12/06 10:18:33;;;;;;;6.65;2.88;;;;;;;19.51;50.21;96612.00;13268257;22;20062;-48
2022/12/06 10:24:12;;;;;;;6.28;3.03;;;;;;;19.53;50.24;96605.16;13246586;22;20326;-46
2022/12/06 10:29:55;;;;;;;8.10;3.00;;;;;;;19.55;50.55;96599.41;13246364;22;20020;-49
2022/12/06 10:35:17;;;;;;;6.03;2.78;;;;;;;19.58;50.40;96592.56;13223294;22;20017;-48
2022/12/06 10:40:58;;;;;;;5.97;2.30;;;;;;;19.61;50.44;96589.22;13245487;22;20025;-48
2022/12/06 10:52:18;;;;;;;5.55;2.70;;;;;;;19.65;50.27;96577.41;13245800;22;20472;-51
2022/12/06 10:57:45;;;;;;;3.63;2.35;;;;;;;19.69;50.45;96578.31;13245588;22;20014;-49
2022/12/06 11:03:25;;;;;;;5.45;2.53;;;;;;;19.72;50.08;96579.63;13243890;22;20350;-48
2022/12/06 11:08:51;;;;;;;5.93;2.42;;;;;;;19.74;50.19;96572.75;13221964;22;20022;-47
2022/12/06 11:14:17;;;;;;;5.35;2.40;;;;;;;19.77;49.93;96571.28;13246315;22;20049;-49
2022/12/06 11:19:43;;;;;;;4.85;2.53;;;;;;;19.79;49.80;96569.06;13267427;22;20349;-48
2022/12/06 11:25:22;;;;;;;4.32;2.50;;;;;;;19.82;49.86;96560.28;13221562;22;20010;-47
2022/12/06 11:30:41;;;;;;;5.28;2.03;;;;;;;19.83;47.80;96553.75;13222526;22;20025;-47
2022/12/06 11:36:04;;;;;;;3.90;2.38;;;;;;;19.87;49.07;96564.69;13246104;22;20021;-47
2022/12/06 11:41:30;;;;;;;4.97;2.30;;;;;;;19.88;49.03;96561.66;13245629;22;20021;-49
2022/12/06 11:46:54;;;;;;;5.72;2.38;;;;;;;19.91;49.10;96565.63;13222192;22;20014;-46
2022/12/06 11:52:18;;;;;;;5.47;2.35;;;;;;;19.93;49.17;96556.06;13247154;22;20016;-50
2022/12/06 11:57:43;;;;;;;4.68;2.60;;;;;;;19.95;49.44;96561.13;13226506;22;20075;-46
2022/12/06 12:03:03;;;;;;;5.35;2.47;;;;;;;19.98;49.65;96552.34;13225908;22;20025;-49
2022/12/06 12:08:23;;;;;;;6.05;3.13;;;;;;;20.01;50.51;96557.09;13271024;22;20017;-46
2022/12/06 12:13:49;;;;;;;7.22;4.20;;;;;;;20.06;51.28;96550.69;13249498;22;20010;-48
2022/12/06 12:19:34;;;;;;;7.32;4.07;;;;;;;20.06;50.64;96537.97;13248638;22;20464;-46
2022/12/06 12:24:57;;;;;;;8.15;4.13;;;;;;;20.08;50.79;96532.22;13270985;22;20067;-47
2022/12/06 12:30:31;;;;;;;8.38;4.05;;;;;;;20.10;50.90;96529.97;13249093;22;20018;-47
2022/12/06 12:36:16;;;;;;;6.95;3.28;;;;;;;20.13;51.66;96537.41;13248196;22;20014;-47
2022/12/06 12:41:41;;;;;;;6.60;3.15;;;;;;;20.15;51.54;96546.00;13247892;22;20018;-48
2022/12/06 12:47:17;;;;;;;6.50;3.03;;;;;;;20.16;51.59;96544.84;13248691;22;20017;-46
2022/12/06 12:52:38;;;;;;;5.45;2.88;;;;;;;20.19;51.39;96543.38;13248409;22;20018;-48
2022/12/06 12:57:59;;;;;;;4.55;2.40;;;;;;;20.19;51.37;96532.56;13248748;22;20020;-47
2022/12/06 13:03:21;;;;;;;4.72;2.40;;;;;;;20.20;51.16;96536.88;13224601;22;20021;-47
2022/12/06 13:08:40;;;;;;;3.65;2.30;;;;;;;20.22;50.89;96534.63;13248208;22;20025;-48
2022/12/06 13:14:02;;;;;;;4.22;2.40;;;;;;;20.22;50.73;96535.41;13247839;22;20009;-47
2022/12/06 13:19:37;;;;;;;4.47;2.30;;;;;;;20.26;50.75;96533.59;13269315;22;20010;-46
2022/12/06 13:25:00;;;;;;;3.90;2.13;;;;;;;20.26;50.44;96530.91;13223706;22;20014;-48
2022/12/06 13:30:21;;;;;;;3.08;1.85;;;;;;;20.29;50.44;96529.47;13224207;22;20021;-47
2022/12/06 13:35:49;;;;;;;2.42;1.90;;;;;;;20.30;50.23;96528.31;13248219;22;20009;-49
2022/12/06 13:41:13;;;;;;;3.27;1.90;;;;;;;20.31;50.37;96525.28;13247574;22;20017;-49
2022/12/06 13:46:33;;;;;;;3.08;1.73;;;;;;;20.32;50.36;96528.78;13269194;22;20010;-47
2022/12/06 13:51:52;;;;;;;2.92;1.60;;;;;;;20.34;50.16;96524.59;13223748;22;20345;-47
2022/12/06 13:57:20;;;;;;;3.15;1.88;;;;;;;20.34;50.10;96521.91;13247443;22;20306;-48
2022/12/06 14:02:43;;;;;;;2.38;1.60;;;;;;;20.35;49.92;96520.78;13247208;22;20017;-48
2022/12/06 14:08:03;;;;;;;2.53;1.80;;;;;;;20.38;49.88;96518.53;13246601;22;20022;-47
2022/12/06 14:13:22;;;;;;;2.63;1.77;;;;;;;20.39;49.85;96514.72;13246984;22;20022;-47
2022/12/06 14:18:41;;;;;;;2.17;1.67;;;;;;;20.41;49.80;96520.56;13247472;22;20014;-47
2022/12/06 14:24:03;;;;;;;2.08;1.60;;;;;;;20.42;49.97;96514.03;13247076;22;20074;-47
2022/12/06 14:29:23;;;;;;;2.40;1.65;;;;;;;20.42;49.68;96514.03;13246909;22;20345;-47
2022/12/06 14:34:43;;;;;;;2.38;1.65;;;;;;;20.44;49.54;96509.06;13247102;22;20014;-47
2022/12/06 14:40:22;;;;;;;2.35;1.70;;;;;;;20.44;49.41;96501.72;13246466;22;20066;-46
2022/12/06 14:45:43;;;;;;;3.20;1.80;;;;;;;20.45;49.46;96499.84;13246709;22;20010;-49
2022/12/06 14:51:03;;;;;;;1.75;1.40;;;;;;;20.48;49.43;96501.84;13246180;22;20014;-50
2022/12/06 14:56:35;;;;;;;1.73;1.45;;;;;;;20.48;49.37;96499.16;13246754;22;20010;-48
2022/12/06 15:01:55;;;;;;;1.80;1.50;;;;;;;20.48;49.31;96501.84;13267840;22;20010;-49
2022/12/06 15:07:37;;;;;;;2.25;1.45;;;;;;;20.48;49.15;96496.44;13246208;22;20092;-46
2022/12/06 15:13:14;;;;;;;1.70;1.30;;;;;;;20.48;49.09;96499.97;13267917;22;20010;-47
2022/12/06 15:18:39;;;;;;;1.75;1.30;;;;;;;20.47;49.19;96501.06;13246504;22;20014;-48
2022/12/06 15:23:59;;;;;;;3.17;1.40;;;;;;;20.47;49.05;96503.00;13247301;22;20457;-49
2022/12/06 15:29:18;;;;;;;1.77;1.20;;;;;;;20.47;49.23;96503.78;13272055;22;20009;-46
2022/12/06 15:34:38;;;;;;;2.30;1.60;;;;;;;20.45;49.20;96495.19;13250830;22;20010;-46
2022/12/06 15:39:58;;;;;;;2.45;1.25;;;;;;;20.45;49.12;96502.53;13271893;22;20429;-48
2022/12/06 15:45:17;;;;;;;1.80;1.50;;;;;;;20.44;49.17;96490.91;13250519;22;20019;-46
2022/12/06 15:50:36;;;;;;;1.45;1.30;;;;;;;20.44;49.19;96495.53;13250402;22;20024;-49
2022/12/06 15:55:55;;;;;;;1.40;1.25;;;;;;;20.42;49.10;96495.88;13249931;22;20029;-46
2022/12/06 16:01:21;;;;;;;1.60;1.25;;;;;;;20.42;49.18;96495.88;13249158;22;20018;-46
2022/12/06 16:06:41;;;;;;;2.30;1.23;;;;;;;20.42;49.07;96493.16;13249439;22;20021;-46
2022/12/06 16:12:00;;;;;;;1.98;1.20;;;;;;;20.41;49.08;96496.22;13249671;22;20024;-46
2022/12/06 16:17:20;;;;;;;1.23;1.08;;;;;;;20.39;49.03;96487.66;13249455;22;20078;-48
2022/12/06 16:28:18;;;;;;;1.50;1.10;;;;;;;20.36;49.07;96483.69;13249414;22;20013;-46
2022/12/06 16:33:37;;;;;;;2.15;1.20;;;;;;;20.35;49.06;96492.94;13247984;22;20014;-46
2022/12/06 16:39:03;;;;;;;1.80;1.33;;;;;;;20.34;49.00;96492.13;13248005;22;20024;-49
2022/12/06 16:44:23;;;;;;;1.38;1.10;;;;;;;20.33;49.01;96482.47;13248412;22;20014;-47
2022/12/06 16:49:42;;;;;;;1.85;1.30;;;;;;;20.34;48.90;96480.53;13270144;22;20010;-46
2022/12/06 16:55:02;;;;;;;1.30;1.20;;;;;;;20.31;49.00;96481.22;13248471;22;20084;-49
2022/12/06 17:00:22;;;;;;;1.70;1.23;;;;;;;20.30;49.00;96480.41;13248583;22;20014;-46
2022/12/06 17:05:42;;;;;;;1.33;1.10;;;;;;;20.28;48.97;96482.66;13247488;22;20020;-48
2022/12/06 17:12:01;;;;;;;1.52;1.25;;;;;;;20.27;49.12;96477.63;13247330;22;20339;-48
2022/12/06 17:16:41;;;;;;;1.77;1.20;;;;;;;20.25;49.18;96477.94;13247564;22;20021;-49
2022/12/06 17:22:01;;;;;;;1.38;1.10;;;;;;;20.25;49.26;96477.16;13247044;22;20048;-46
2022/12/06 17:27:21;;;;;;;1.55;1.10;;;;;;;20.23;49.17;96477.50;13248068;22;20053;-46
2022/12/06 17:32:40;;;;;;;1.92;1.27;;;;;;;20.21;49.03;96474.34;13247970;22;20014;-47
2022/12/06 17:38:00;;;;;;;2.47;1.23;;;;;;;20.20;49.25;96472.75;13247730;22;20010;-46
2022/12/06 17:43:19;;;;;;;1.95;1.23;;;;;;;20.19;49.19;96471.19;13247896;22;20017;-47
2022/12/06 17:48:39;;;;;;;2.88;1.25;;;;;;;20.17;49.36;96473.44;13247032;22;20021;-46
2022/12/06 17:53:58;;;;;;;1.58;1.10;;;;;;;20.15;49.47;96468.34;13268704;22;20024;-48
2022/12/06 17:59:23;;;;;;;1.70;1.10;;;;;;;20.13;49.42;96461.69;13247296;22;20021;-48
2022/12/06 18:04:44;;;;;;;2.13;1.10;;;;;;;20.11;49.36;96467.44;13247165;22;20013;-48
2022/12/06 18:10:05;;;;;;;1.90;1.20;;;;;;;20.09;49.49;96464.28;13246110;22;20025;-46
2022/12/06 18:15:36;;;;;;;1.42;1.10;;;;;;;20.09;49.46;96463.47;13247199;22;20016;-47
2022/12/06 18:20:56;;;;;;;1.50;1.00;;;;;;;20.07;49.34;96471.94;13268963;22;20024;-46
2022/12/06 18:26:15;;;;;;;2.47;1.30;;;;;;;20.05;49.45;96470.69;13246762;22;20010;-49
2022/12/06 18:31:35;;;;;;;1.63;1.27;;;;;;;20.04;49.11;96472.59;13246738;22;20039;-49
2022/12/06 18:36:55;;;;;;;2.50;1.23;;;;;;;20.02;48.98;96466.75;13246547;22;20043;-46
2022/12/06 18:42:14;;;;;;;1.55;1.15;;;;;;;20.00;48.90;96473.63;13246189;22;20017;-46
2022/12/06 18:47:34;;;;;;;4.70;1.00;;;;;;;19.98;49.00;96465.84;13246156;22;20021;-45
2022/12/06 18:52:53;;;;;;;1.75;1.20;;;;;;;19.97;48.89;96460.75;13246349;22;20315;-44
2022/12/06 18:58:14;;;;;;;4.20;1.00;;;;;;;19.98;49.27;96479.34;13247798;22;20093;-55
2022/12/06 19:03:33;;;;;;;2.08;1.00;;;;;;;19.97;49.31;96477.75;13271661;22;20014;-46
2022/12/06 19:08:55;;;;;;;1.23;1.00;;;;;;;19.95;49.52;96466.50;13250385;22;20026;-48
2022/12/06 19:14:15;;;;;;;1.33;1.00;;;;;;;19.93;49.94;96461.44;13250646;22;20017;-45
2022/12/06 19:19:34;;;;;;;3.72;1.10;;;;;;;19.92;49.78;96476.06;13250647;22;20014;-47
2022/12/06 19:24:53;;;;;;;1.23;1.10;;;;;;;19.90;49.61;96478.31;13250402;22;20014;-46
2022/12/06 19:30:13;;;;;;;1.52;1.15;;;;;;;19.88;49.77;96485.97;13249264;22;20018;-46
2022/12/06 19:35:33;;;;;;;1.40;1.00;;;;;;;19.87;49.72;96472.78;13250292;22;20013;-47
2022/12/06 19:40:53;;;;;;;2.30;1.17;;;;;;;19.85;49.76;96483.13;13250266;22;20022;-45
2022/12/06 19:46:16;;;;;;;1.70;1.05;;;;;;;19.84;49.70;96487.75;13249162;22;20010;-45
2022/12/06 19:51:36;;;;;;;2.45;1.08;;;;;;;19.82;49.71;96486.53;13249974;22;20014;-46
2022/12/06 19:56:57;;;;;;;1.30;1.02;;;;;;;19.82;49.70;96487.31;13226461;22;20018;-46
2022/12/06 20:02:17;;;;;;;1.63;1.10;;;;;;;19.78;49.78;96485.59;13249668;22;20014;-47
2022/12/06 20:07:36;;;;;;;1.50;1.00;;;;;;;19.77;49.75;96487.50;13249564;22;20060;-46
2022/12/06 20:12:56;;;;;;;1.13;1.00;;;;;;;19.75;49.72;96490.53;13249117;22;20029;-44
2022/12/06 20:18:15;;;;;;;1.30;1.00;;;;;;;19.73;49.66;96495.50;13249625;22;20017;-46
2022/12/06 20:23:34;;;;;;;1.13;0.90;;;;;;;19.73;49.65;96492.00;13249291;22;20014;-48
2022/12/06 20:28:54;;;;;;;1.10;0.73;;;;;;;19.70;49.61;96485.31;13248627;22;20453;-46
2022/12/06 20:34:14;;;;;;;1.13;1.02;;;;;;;19.70;49.55;96487.25;13248654;22;20014;-46
2022/12/06 20:39:33;;;;;;;1.33;0.90;;;;;;;19.68;49.67;96489.47;13248083;22;20462;-48
2022/12/06 20:44:53;;;;;;;2.55;0.88;;;;;;;19.68;49.78;96484.88;13249374;22;20010;-46
2022/12/06 20:50:15;;;;;;;1.08;0.82;;;;;;;19.68;49.58;96481.34;13247970;22;20442;-45
2022/12/06 20:55:34;;;;;;;1.92;1.10;;;;;;;19.67;49.52;96483.28;13248698;22;20338;-48
2022/12/06 21:00:54;;;;;;;1.30;0.85;;;;;;;19.68;49.66;96475.94;13224922;22;20330;-47
2022/12/06 21:06:13;;;;;;;1.40;0.90;;;;;;;19.68;49.54;96484.06;13248061;22;20468;-46
2022/12/06 21:11:33;;;;;;;1.02;0.93;;;;;;;19.68;49.56;96484.88;13248473;22;20013;-47
2022/12/06 21:16:54;;;;;;;1.67;0.90;;;;;;;19.69;49.56;96483.72;13247522;22;20014;-45
2022/12/06 21:22:13;;;;;;;1.45;0.77;;;;;;;19.70;49.50;96490.72;13248075;22;20036;-48
2022/12/06 21:27:32;;;;;;;1.15;0.80;;;;;;;19.69;49.72;96478.31;13247919;22;20021;-45
2022/12/06 21:32:52;;;;;;;1.13;0.93;;;;;;;19.69;49.68;96478.31;13269228;22;20010;-47
2022/12/06 21:38:12;;;;;;;1.35;0.70;;;;;;;19.68;49.53;96482.16;13247482;22;20014;-48
2022/12/06 21:43:31;;;;;;;0.93;0.77;;;;;;;19.68;49.57;96486.75;13247263;22;20014;-46
2022/12/06 21:48:52;;;;;;;1.05;0.80;;;;;;;19.67;49.62;96491.38;13223151;22;20457;-45
2022/12/06 21:54:12;;;;;;;0.68;0.68;;;;;;;19.67;49.59;96496.00;13268860;22;20341;-47
2022/12/06 21:59:31;;;;;;;1.17;0.80;;;;;;;19.67;49.51;96491.38;13247000;22;20463;-46
2022/12/06 22:04:51;;;;;;;0.80;0.80;;;;;;;19.65;49.64;96485.53;13246353;22;20010;-45
2022/12/06 22:10:11;;;;;;;1.10;0.80;;;;;;;19.64;49.66;96502.06;13246382;22;20029;-47
2022/12/06 22:15:32;;;;;;;1.23;0.73;;;;;;;19.64;49.54;96492.06;13268643;22;20039;-48
2022/12/06 22:21:00;;;;;;;1.15;0.70;;;;;;;19.63;49.55;96500.50;13247060;22;20067;-45
2022/12/06 22:26:21;;;;;;;1.95;0.82;;;;;;;19.63;49.34;96498.56;13152540;22;20063;-46
2022/12/06 22:31:41;;;;;;;1.13;0.70;;;;;;;19.63;49.38;96485.06;13246579;22;20018;-46
2022/12/06 22:37:01;;;;;;;3.70;0.80;;;;;;;19.61;49.33;96487.31;13246802;22;20337;-46
2022/12/06 22:42:21;;;;;;;2.30;0.90;;;;;;;19.61;49.17;96487.31;13268228;22;20010;-45
2022/12/06 22:47:41;;;;;;;1.50;0.80;;;;;;;19.60;49.37;96484.94;13222069;22;20098;-47
2022/12/06 22:58:39;;;;;;;2.47;0.90;;;;;;;19.59;49.73;96494.19;13240064;22;20026;-48
2022/12/06 23:04:01;;;;;;;0.63;0.63;;;;;;;19.55;49.89;96497.53;13246014;22;20013;-46
2022/12/06 23:09:20;;;;;;;1.80;0.90;;;;;;;19.54;49.89;96498.66;13245182;22;20461;-46
2022/12/06 23:14:39;;;;;;;2.60;0.88;;;;;;;19.54;49.86;96495.97;13246388;22;20017;-46
2022/12/06 23:19:58;;;;;;;1.80;0.73;;;;;;;19.55;50.05;96491.34;13246162;22;20018;-47
2022/12/06 23:25:18;;;;;;;2.25;1.00;;;;;;;19.54;50.20;96487.03;13267173;22;20021;-45
2022/12/06 23:30:37;;;;;;;0.98;0.70;;;;;;;19.53;50.23;96491.66;13244984;22;20017;-47
2022/12/06 23:36:05;;;;;;;1.48;0.90;;;;;;;19.52;50.24;96489.28;13266924;22;20071;-47
2022/12/06 23:41:27;;;;;;;1.88;0.95;;;;;;;19.52;50.39;96489.28;13267047;22;20010;-47
2022/12/06 23:46:46;;;;;;;1.63;0.60;;;;;;;19.50;50.30;96495.03;13248834;22;20087;-46
2022/12/06 23:52:06;;;;;;;1.27;0.85;;;;;;;19.50;50.35;96497.75;13248790;22;20453;-48
2022/12/06 23:57:25;;;;;;;1.73;0.65;;;;;;;19.49;50.64;96490.75;13225392;22;20018;-46
